sensor_id;sensor_type;location;lat;lon;timestamp;P1;durP1;ratioP1;P2;durP2;ratioP2
920;SDS011;447;51.332;6.778;2023-07-08T00:00:45;4.97;;;4.67;;
920;SDS011;447;51.332;6.778;2023-07-08T00:03:13;4.53;;;4.23;;
920;SDS011;447;51.332;6.778;2023-07-08T00:05:40;5.10;;;4.70;;
920;SDS011;447;51.332;6.778;2023-07-08T00:08:16;5.03;;;4.73;;
920;SDS011;447;51.332;6.778;2023-07-08T00:10:44;5.37;;;4.97;;
920;SDS011;447;51.332;6.778;2023-07-08T00:13:12;5.73;;;5.27;;
920;SDS011;447;51.332;6.778;2023-07-08T00:15:40;4.40;;;4.10;;
920;SDS011;447;51.332;6.778;2023-07-08T00:18:11;4.53;;;4.13;;
920;SDS011;447;51.332;6.778;2023-07-08T00:20:39;4.83;;;4.43;;
920;SDS011;447;51.332;6.778;2023-07-08T00:23:10;4.63;;;4.33;;
920;SDS011;447;51.332;6.778;2023-07-08T00:25:36;5.30;;;4.80;;
920;SDS011;447;51.332;6.778;2023-07-08T00:28:07;4.70;;;4.27;;
920;SDS011;447;51.332;6.778;2023-07-08T00:30:35;5.50;;;5.10;;
920;SDS011;447;51.332;6.778;2023-07-08T00:33:03;5.10;;;4.70;;
920;SDS011;447;51.332;6.778;2023-07-08T00:35:32;4.67;;;4.37;;
920;SDS011;447;51.332;6.778;2023-07-08T00:38:24;5.63;;;5.10;;
920;SDS011;447;51.332;6.778;2023-07-08T00:46:28;5.10;;;4.70;;
920;SDS011;447;51.332;6.778;2023-07-08T00:48:49;4.53;;;4.23;;
920;SDS011;447;51.332;6.778;2023-07-08T00:51:17;5.27;;;4.87;;
920;SDS011;447;51.332;6.778;2023-07-08T00:53:45;5.47;;;4.97;;
920;SDS011;447;51.332;6.778;2023-07-08T01:01:15;5.70;;;5.30;;
920;SDS011;447;51.332;6.778;2023-07-08T01:03:44;6.27;;;5.87;;
920;SDS011;447;51.332;6.778;2023-07-08T01:06:17;5.60;;;5.10;;
920;SDS011;447;51.332;6.778;2023-07-08T01:08:45;5.60;;;5.20;;
920;SDS011;447;51.332;6.778;2023-07-08T01:11:12;4.70;;;4.40;;
920;SDS011;447;51.332;6.778;2023-07-08T01:13:39;5.20;;;4.70;;
920;SDS011;447;51.332;6.778;2023-07-08T01:16:09;4.70;;;4.30;;
920;SDS011;447;51.332;6.778;2023-07-08T01:18:38;4.30;;;4.00;;
920;SDS011;447;51.332;6.778;2023-07-08T01:21:05;4.40;;;4.10;;
920;SDS011;447;51.332;6.778;2023-07-08T01:23:54;4.50;;;4.20;;
920;SDS011;447;51.332;6.778;2023-07-08T01:26:22;4.30;;;4.00;;
920;SDS011;447;51.332;6.778;2023-07-08T01:28:50;4.50;;;4.20;;
920;SDS011;447;51.332;6.778;2023-07-08T01:31:21;4.33;;;4.03;;
920;SDS011;447;51.332;6.778;2023-07-08T01:33:48;4.40;;;4.10;;
920;SDS011;447;51.332;6.778;2023-07-08T01:36:16;3.97;;;3.67;;
920;SDS011;447;51.332;6.778;2023-07-08T01:38:42;5.00;;;4.60;;
920;SDS011;447;51.332;6.778;2023-07-08T01:41:14;4.37;;;4.07;;
920;SDS011;447;51.332;6.778;2023-07-08T01:43:41;4.17;;;3.87;;
920;SDS011;447;51.332;6.778;2023-07-08T01:46:15;4.33;;;4.03;;
920;SDS011;447;51.332;6.778;2023-07-08T01:48:48;4.40;;;4.10;;
920;SDS011;447;51.332;6.778;2023-07-08T01:51:17;5.00;;;4.60;;
920;SDS011;447;51.332;6.778;2023-07-08T01:53:46;4.60;;;4.30;;
920;SDS011;447;51.332;6.778;2023-07-08T01:56:12;4.73;;;4.20;;
920;SDS011;447;51.332;6.778;2023-07-08T01:58:40;4.37;;;3.97;;
920;SDS011;447;51.332;6.778;2023-07-08T02:01:06;4.70;;;4.30;;
920;SDS011;447;51.332;6.778;2023-07-08T02:03:33;4.63;;;4.33;;
920;SDS011;447;51.332;6.778;2023-07-08T02:05:59;4.80;;;4.40;;
920;SDS011;447;51.332;6.778;2023-07-08T02:08:25;4.70;;;4.30;;
920;SDS011;447;51.332;6.778;2023-07-08T02:10:57;4.27;;;3.97;;
920;SDS011;447;51.332;6.778;2023-07-08T02:13:24;4.70;;;4.30;;
920;SDS011;447;51.332;6.778;2023-07-08T02:15:50;4.27;;;3.97;;
920;SDS011;447;51.332;6.778;2023-07-08T02:18:16;4.33;;;3.93;;
920;SDS011;447;51.332;6.778;2023-07-08T02:20:44;5.00;;;4.50;;
920;SDS011;447;51.332;6.778;2023-07-08T02:23:13;4.30;;;4.00;;
920;SDS011;447;51.332;6.778;2023-07-08T02:25:39;4.60;;;4.20;;
920;SDS011;447;51.332;6.778;2023-07-08T02:28:05;4.60;;;4.20;;
920;SDS011;447;51.332;6.778;2023-07-08T02:30:32;5.00;;;4.60;;
920;SDS011;447;51.332;6.778;2023-07-08T02:33:01;6.13;;;4.70;;
920;SDS011;447;51.332;6.778;2023-07-08T02:35:31;4.27;;;3.97;;
920;SDS011;447;51.332;6.778;2023-07-08T02:37:57;5.10;;;4.70;;
920;SDS011;447;51.332;6.778;2023-07-08T02:40:23;4.10;;;3.80;;
920;SDS011;447;51.332;6.778;2023-07-08T02:42:50;5.03;;;4.63;;
920;SDS011;447;51.332;6.778;2023-07-08T02:45:18;5.13;;;4.70;;
920;SDS011;447;51.332;6.778;2023-07-08T02:47:44;4.60;;;4.30;;
920;SDS011;447;51.332;6.778;2023-07-08T02:50:10;4.53;;;4.13;;
920;SDS011;447;51.332;6.778;2023-07-08T02:52:37;4.47;;;4.07;;
920;SDS011;447;51.332;6.778;2023-07-08T02:55:06;5.53;;;5.03;;
920;SDS011;447;51.332;6.778;2023-07-08T02:57:32;4.87;;;4.57;;
920;SDS011;447;51.332;6.778;2023-07-08T03:00:00;4.80;;;4.40;;
920;SDS011;447;51.332;6.778;2023-07-08T03:02:26;4.53;;;4.23;;
920;SDS011;447;51.332;6.778;2023-07-08T03:04:53;4.40;;;4.10;;
920;SDS011;447;51.332;6.778;2023-07-08T03:07:24;6.00;;;4.80;;
920;SDS011;447;51.332;6.778;2023-07-08T03:09:50;4.70;;;4.30;;
920;SDS011;447;51.332;6.778;2023-07-08T03:12:16;5.40;;;4.90;;
920;SDS011;447;51.332;6.778;2023-07-08T03:14:42;5.30;;;4.90;;
920;SDS011;447;51.332;6.778;2023-07-08T03:17:09;5.00;;;4.60;;
920;SDS011;447;51.332;6.778;2023-07-08T03:19:35;4.93;;;4.63;;
920;SDS011;447;51.332;6.778;2023-07-08T03:22:02;4.90;;;4.50;;
920;SDS011;447;51.332;6.778;2023-07-08T03:24:30;4.90;;;4.50;;
920;SDS011;447;51.332;6.778;2023-07-08T03:27:01;5.13;;;4.53;;
920;SDS011;447;51.332;6.778;2023-07-08T03:29:33;5.30;;;4.90;;
920;SDS011;447;51.332;6.778;2023-07-08T03:32:00;5.20;;;4.80;;
920;SDS011;447;51.332;6.778;2023-07-08T03:34:26;5.40;;;5.00;;
920;SDS011;447;51.332;6.778;2023-07-08T03:36:54;5.27;;;4.77;;
920;SDS011;447;51.332;6.778;2023-07-08T03:39:20;4.80;;;4.40;;
920;SDS011;447;51.332;6.778;2023-07-08T03:41:51;5.43;;;5.03;;
920;SDS011;447;51.332;6.778;2023-07-08T03:44:19;5.20;;;4.80;;
920;SDS011;447;51.332;6.778;2023-07-08T03:46:46;5.20;;;4.80;;
920;SDS011;447;51.332;6.778;2023-07-08T03:49:18;5.67;;;5.27;;
920;SDS011;447;51.332;6.778;2023-07-08T03:51:53;6.73;;;5.90;;
920;SDS011;447;51.332;6.778;2023-07-08T03:54:20;6.27;;;5.77;;
920;SDS011;447;51.332;6.778;2023-07-08T03:56:48;5.20;;;4.80;;
920;SDS011;447;51.332;6.778;2023-07-08T03:59:14;6.10;;;5.60;;
920;SDS011;447;51.332;6.778;2023-07-08T04:01:43;5.90;;;5.40;;
920;SDS011;447;51.332;6.778;2023-07-08T04:04:13;6.00;;;5.40;;
920;SDS011;447;51.332;6.778;2023-07-08T04:06:42;5.30;;;4.77;;
920;SDS011;447;51.332;6.778;2023-07-08T04:09:15;5.87;;;5.37;;
920;SDS011;447;51.332;6.778;2023-07-08T04:11:41;5.87;;;5.37;;
920;SDS011;447;51.332;6.778;2023-07-08T04:14:08;5.90;;;5.40;;
920;SDS011;447;51.332;6.778;2023-07-08T04:16:48;6.20;;;5.70;;
920;SDS011;447;51.332;6.778;2023-07-08T04:19:18;5.90;;;5.50;;
920;SDS011;447;51.332;6.778;2023-07-08T04:21:50;5.50;;;5.00;;
920;SDS011;447;51.332;6.778;2023-07-08T04:24:18;5.80;;;5.30;;
920;SDS011;447;51.332;6.778;2023-07-08T04:26:47;5.33;;;4.83;;
920;SDS011;447;51.332;6.778;2023-07-08T04:29:14;5.10;;;4.70;;
920;SDS011;447;51.332;6.778;2023-07-08T04:31:42;5.93;;;5.53;;
920;SDS011;447;51.332;6.778;2023-07-08T04:34:14;6.13;;;5.33;;
920;SDS011;447;51.332;6.778;2023-07-08T04:36:43;5.13;;;4.70;;
920;SDS011;447;51.332;6.778;2023-07-08T04:39:10;5.93;;;5.53;;
920;SDS011;447;51.332;6.778;2023-07-08T04:41:36;6.03;;;5.53;;
920;SDS011;447;51.332;6.778;2023-07-08T04:44:09;5.57;;;5.17;;
920;SDS011;447;51.332;6.778;2023-07-08T04:49:22;5.37;;;5.00;;
920;SDS011;447;51.332;6.778;2023-07-08T04:51:57;5.33;;;4.83;;
920;SDS011;447;51.332;6.778;2023-07-08T04:54:27;5.90;;;5.40;;
920;SDS011;447;51.332;6.778;2023-07-08T04:56:53;6.60;;;6.00;;
920;SDS011;447;51.332;6.778;2023-07-08T04:59:25;5.93;;;5.53;;
920;SDS011;447;51.332;6.778;2023-07-08T05:01:53;5.40;;;5.00;;
920;SDS011;447;51.332;6.778;2023-07-08T05:04:22;6.50;;;5.60;;
920;SDS011;447;51.332;6.778;2023-07-08T05:06:48;5.80;;;5.40;;
920;SDS011;447;51.332;6.778;2023-07-08T05:09:17;7.40;;;5.10;;
920;SDS011;447;51.332;6.778;2023-07-08T05:11:45;6.13;;;5.63;;
920;SDS011;447;51.332;6.778;2023-07-08T05:14:13;5.53;;;5.13;;
920;SDS011;447;51.332;6.778;2023-07-08T05:16:44;6.10;;;5.60;;
920;SDS011;447;51.332;6.778;2023-07-08T05:19:10;6.17;;;5.40;;
920;SDS011;447;51.332;6.778;2023-07-08T05:21:36;5.47;;;5.10;;
920;SDS011;447;51.332;6.778;2023-07-08T05:24:03;6.80;;;6.13;;
920;SDS011;447;51.332;6.778;2023-07-08T05:26:32;5.27;;;4.77;;
920;SDS011;447;51.332;6.778;2023-07-08T05:29:01;5.17;;;4.77;;
920;SDS011;447;51.332;6.778;2023-07-08T05:31:27;5.77;;;5.37;;
920;SDS011;447;51.332;6.778;2023-07-08T05:33:53;5.87;;;5.37;;
920;SDS011;447;51.332;6.778;2023-07-08T05:36:19;5.67;;;5.17;;
920;SDS011;447;51.332;6.778;2023-07-08T05:38:45;5.87;;;5.37;;
920;SDS011;447;51.332;6.778;2023-07-08T05:41:11;5.83;;;5.33;;
920;SDS011;447;51.332;6.778;2023-07-08T05:43:38;5.47;;;5.07;;
920;SDS011;447;51.332;6.778;2023-07-08T05:46:07;5.53;;;5.13;;
920;SDS011;447;51.332;6.778;2023-07-08T05:48:33;6.63;;;6.03;;
920;SDS011;447;51.332;6.778;2023-07-08T05:50:59;6.07;;;5.47;;
920;SDS011;447;51.332;6.778;2023-07-08T05:53:24;5.90;;;5.50;;
920;SDS011;447;51.332;6.778;2023-07-08T05:55:52;5.37;;;4.97;;
920;SDS011;447;51.332;6.778;2023-07-08T05:58:20;5.23;;;4.83;;
920;SDS011;447;51.332;6.778;2023-07-08T06:00:54;5.83;;;5.33;;
920;SDS011;447;51.332;6.778;2023-07-08T06:03:21;5.60;;;5.10;;
920;SDS011;447;51.332;6.778;2023-07-08T06:05:46;4.93;;;4.63;;
920;SDS011;447;51.332;6.778;2023-07-08T06:08:14;5.77;;;5.27;;
920;SDS011;447;51.332;6.778;2023-07-08T06:10:43;5.47;;;4.97;;
920;SDS011;447;51.332;6.778;2023-07-08T06:13:11;5.73;;;5.23;;
920;SDS011;447;51.332;6.778;2023-07-08T06:15:42;6.07;;;5.57;;
920;SDS011;447;51.332;6.778;2023-07-08T06:18:12;4.97;;;4.47;;
920;SDS011;447;51.332;6.778;2023-07-08T06:20:40;5.17;;;4.77;;
920;SDS011;447;51.332;6.778;2023-07-08T06:23:06;5.80;;;5.30;;
920;SDS011;447;51.332;6.778;2023-07-08T06:25:32;5.90;;;5.40;;
920;SDS011;447;51.332;6.778;2023-07-08T06:27:58;5.00;;;4.60;;
920;SDS011;447;51.332;6.778;2023-07-08T06:30:24;5.20;;;4.80;;
920;SDS011;447;51.332;6.778;2023-07-08T06:32:50;5.90;;;5.50;;
920;SDS011;447;51.332;6.778;2023-07-08T06:35:16;5.43;;;5.03;;
920;SDS011;447;51.332;6.778;2023-07-08T06:37:42;5.57;;;5.17;;
920;SDS011;447;51.332;6.778;2023-07-08T06:40:08;5.20;;;4.80;;
920;SDS011;447;51.332;6.778;2023-07-08T06:42:34;5.73;;;5.30;;
920;SDS011;447;51.332;6.778;2023-07-08T06:45:11;5.57;;;5.07;;
920;SDS011;447;51.332;6.778;2023-07-08T06:47:37;5.03;;;4.63;;
920;SDS011;447;51.332;6.778;2023-07-08T06:50:05;5.90;;;5.50;;
920;SDS011;447;51.332;6.778;2023-07-08T06:52:34;5.20;;;4.77;;
920;SDS011;447;51.332;6.778;2023-07-08T06:55:03;5.30;;;4.80;;
920;SDS011;447;51.332;6.778;2023-07-08T06:57:32;4.87;;;4.50;;
920;SDS011;447;51.332;6.778;2023-07-08T07:00:03;5.13;;;4.60;;
920;SDS011;447;51.332;6.778;2023-07-08T07:02:31;5.83;;;5.33;;
920;SDS011;447;51.332;6.778;2023-07-08T07:04:59;5.70;;;5.30;;
920;SDS011;447;51.332;6.778;2023-07-08T07:07:30;5.50;;;5.00;;
920;SDS011;447;51.332;6.778;2023-07-08T07:09:59;6.57;;;6.07;;
920;SDS011;447;51.332;6.778;2023-07-08T07:12:25;6.30;;;5.80;;
920;SDS011;447;51.332;6.778;2023-07-08T07:14:51;6.20;;;5.70;;
920;SDS011;447;51.332;6.778;2023-07-08T07:17:20;5.63;;;5.20;;
920;SDS011;447;51.332;6.778;2023-07-08T07:19:50;5.67;;;5.23;;
920;SDS011;447;51.332;6.778;2023-07-08T07:22:16;5.80;;;5.30;;
920;SDS011;447;51.332;6.778;2023-07-08T07:24:42;6.03;;;5.57;;
920;SDS011;447;51.332;6.778;2023-07-08T07:27:11;6.90;;;6.40;;
920;SDS011;447;51.332;6.778;2023-07-08T07:29:46;6.43;;;5.93;;
920;SDS011;447;51.332;6.778;2023-07-08T07:32:14;6.53;;;5.93;;
920;SDS011;447;51.332;6.778;2023-07-08T07:34:42;6.40;;;5.80;;
920;SDS011;447;51.332;6.778;2023-07-08T07:37:14;8.63;;;7.93;;
920;SDS011;447;51.332;6.778;2023-07-08T07:39:43;7.63;;;7.00;;
920;SDS011;447;51.332;6.778;2023-07-08T07:42:13;10.07;;;7.60;;
920;SDS011;447;51.332;6.778;2023-07-08T07:44:41;8.23;;;7.53;;
920;SDS011;447;51.332;6.778;2023-07-08T07:47:11;7.10;;;6.50;;
920;SDS011;447;51.332;6.778;2023-07-08T07:49:42;8.90;;;7.10;;
920;SDS011;447;51.332;6.778;2023-07-08T07:52:10;7.40;;;6.70;;
920;SDS011;447;51.332;6.778;2023-07-08T07:54:37;7.90;;;7.20;;
920;SDS011;447;51.332;6.778;2023-07-08T07:57:06;7.10;;;6.50;;
920;SDS011;447;51.332;6.778;2023-07-08T07:59:34;8.53;;;7.40;;
920;SDS011;447;51.332;6.778;2023-07-08T08:02:00;7.70;;;7.10;;
920;SDS011;447;51.332;6.778;2023-07-08T08:04:28;7.23;;;6.63;;
920;SDS011;447;51.332;6.778;2023-07-08T08:06:54;7.63;;;7.00;;
920;SDS011;447;51.332;6.778;2023-07-08T08:09:20;7.63;;;7.00;;
920;SDS011;447;51.332;6.778;2023-07-08T08:11:46;7.93;;;7.30;;
920;SDS011;447;51.332;6.778;2023-07-08T08:14:11;8.27;;;7.53;;
920;SDS011;447;51.332;6.778;2023-07-08T08:16:38;7.73;;;7.10;;
920;SDS011;447;51.332;6.778;2023-07-08T08:19:06;8.27;;;7.47;;
920;SDS011;447;51.332;6.778;2023-07-08T08:21:32;7.30;;;6.70;;
920;SDS011;447;51.332;6.778;2023-07-08T08:24:00;7.53;;;6.80;;
920;SDS011;447;51.332;6.778;2023-07-08T08:26:29;8.60;;;7.80;;
920;SDS011;447;51.332;6.778;2023-07-08T08:28:57;8.10;;;7.40;;
920;SDS011;447;51.332;6.778;2023-07-08T08:31:23;7.87;;;7.07;;
920;SDS011;447;51.332;6.778;2023-07-08T08:37:25;7.30;;;6.70;;
920;SDS011;447;51.332;6.778;2023-07-08T08:39:50;8.00;;;7.30;;
920;SDS011;447;51.332;6.778;2023-07-08T08:42:19;8.47;;;7.67;;
920;SDS011;447;51.332;6.778;2023-07-08T08:45:05;7.80;;;7.10;;
920;SDS011;447;51.332;6.778;2023-07-08T08:50:25;8.10;;;7.30;;
920;SDS011;447;51.332;6.778;2023-07-08T08:52:55;7.67;;;7.07;;
920;SDS011;447;51.332;6.778;2023-07-08T08:55:23;7.80;;;7.10;;
920;SDS011;447;51.332;6.778;2023-07-08T08:57:56;7.60;;;6.87;;
920;SDS011;447;51.332;6.778;2023-07-08T09:00:37;7.40;;;6.73;;
920;SDS011;447;51.332;6.778;2023-07-08T09:03:49;7.87;;;7.17;;
920;SDS011;447;51.332;6.778;2023-07-08T09:06:19;8.47;;;7.67;;
920;SDS011;447;51.332;6.778;2023-07-08T09:08:45;7.90;;;7.20;;
920;SDS011;447;51.332;6.778;2023-07-08T09:14:18;8.10;;;7.40;;
920;SDS011;447;51.332;6.778;2023-07-08T09:16:56;9.47;;;8.57;;
920;SDS011;447;51.332;6.778;2023-07-08T09:19:47;8.30;;;7.60;;
920;SDS011;447;51.332;6.778;2023-07-08T09:22:46;7.37;;;6.77;;
920;SDS011;447;51.332;6.778;2023-07-08T09:25:28;8.30;;;7.60;;
920;SDS011;447;51.332;6.778;2023-07-08T09:28:02;7.93;;;7.23;;
920;SDS011;447;51.332;6.778;2023-07-08T09:30:28;9.17;;;7.83;;
920;SDS011;447;51.332;6.778;2023-07-08T09:32:56;8.47;;;7.67;;
920;SDS011;447;51.332;6.778;2023-07-08T09:35:43;8.33;;;7.53;;
920;SDS011;447;51.332;6.778;2023-07-08T09:38:16;8.03;;;7.40;;
920;SDS011;447;51.332;6.778;2023-07-08T09:40:47;8.70;;;7.90;;
920;SDS011;447;51.332;6.778;2023-07-08T09:45:42;7.70;;;7.10;;
920;SDS011;447;51.332;6.778;2023-07-08T09:48:19;7.50;;;6.90;;
920;SDS011;447;51.332;6.778;2023-07-08T09:50:54;7.60;;;7.00;;
920;SDS011;447;51.332;6.778;2023-07-08T09:53:21;7.50;;;6.80;;
920;SDS011;447;51.332;6.778;2023-07-08T09:55:48;7.80;;;7.03;;
920;SDS011;447;51.332;6.778;2023-07-08T09:58:25;8.70;;;8.00;;
920;SDS011;447;51.332;6.778;2023-07-08T10:01:01;7.33;;;6.70;;
920;SDS011;447;51.332;6.778;2023-07-08T10:03:34;7.80;;;7.10;;
920;SDS011;447;51.332;6.778;2023-07-08T10:06:06;7.13;;;6.43;;
920;SDS011;447;51.332;6.778;2023-07-08T10:08:49;8.70;;;7.90;;
920;SDS011;447;51.332;6.778;2023-07-08T10:11:34;7.83;;;7.10;;
920;SDS011;447;51.332;6.778;2023-07-08T10:14:13;49.63;;;10.20;;
920;SDS011;447;51.332;6.778;2023-07-08T10:17:03;45.23;;;9.80;;
920;SDS011;447;51.332;6.778;2023-07-08T10:19:29;32.30;;;9.77;;
920;SDS011;447;51.332;6.778;2023-07-08T10:21:57;7.40;;;6.73;;
920;SDS011;447;51.332;6.778;2023-07-08T10:27:19;8.33;;;6.17;;
920;SDS011;447;51.332;6.778;2023-07-08T10:35:40;7.53;;;6.70;;
920;SDS011;447;51.332;6.778;2023-07-08T10:41:11;6.87;;;6.27;;
920;SDS011;447;51.332;6.778;2023-07-08T10:43:50;7.13;;;6.43;;
920;SDS011;447;51.332;6.778;2023-07-08T10:49:06;6.83;;;6.30;;
920;SDS011;447;51.332;6.778;2023-07-08T10:51:48;6.80;;;6.10;;
920;SDS011;447;51.332;6.778;2023-07-08T10:54:23;7.20;;;6.60;;
920;SDS011;447;51.332;6.778;2023-07-08T11:11:05;7.80;;;7.03;;
920;SDS011;447;51.332;6.778;2023-07-08T11:13:38;10.30;;;6.40;;
920;SDS011;447;51.332;6.778;2023-07-08T11:16:15;6.83;;;6.23;;
920;SDS011;447;51.332;6.778;2023-07-08T11:18:59;7.33;;;6.53;;
920;SDS011;447;51.332;6.778;2023-07-08T11:21:34;7.60;;;5.90;;
920;SDS011;447;51.332;6.778;2023-07-08T11:24:53;6.90;;;6.20;;
920;SDS011;447;51.332;6.778;2023-07-08T11:29:59;7.27;;;6.57;;
920;SDS011;447;51.332;6.778;2023-07-08T11:32:48;7.43;;;6.77;;
920;SDS011;447;51.332;6.778;2023-07-08T11:35:29;8.10;;;6.73;;
920;SDS011;447;51.332;6.778;2023-07-08T11:38:08;8.40;;;6.93;;
920;SDS011;447;51.332;6.778;2023-07-08T11:40:50;7.20;;;6.60;;
920;SDS011;447;51.332;6.778;2023-07-08T11:43:16;7.47;;;6.50;;
920;SDS011;447;51.332;6.778;2023-07-08T11:45:44;6.97;;;6.37;;
920;SDS011;447;51.332;6.778;2023-07-08T11:48:15;6.60;;;6.00;;
920;SDS011;447;51.332;6.778;2023-07-08T11:51:04;9.10;;;7.10;;
920;SDS011;447;51.332;6.778;2023-07-08T11:53:38;7.30;;;6.60;;
920;SDS011;447;51.332;6.778;2023-07-08T11:56:21;8.30;;;7.40;;
920;SDS011;447;51.332;6.778;2023-07-08T11:59:16;8.50;;;6.23;;
920;SDS011;447;51.332;6.778;2023-07-08T12:07:17;5.87;;;5.40;;
920;SDS011;447;51.332;6.778;2023-07-08T12:09:47;8.40;;;5.80;;
920;SDS011;447;51.332;6.778;2023-07-08T12:12:29;10.50;;;6.03;;
920;SDS011;447;51.332;6.778;2023-07-08T12:15:31;7.87;;;5.73;;
920;SDS011;447;51.332;6.778;2023-07-08T12:18:09;7.27;;;5.57;;
920;SDS011;447;51.332;6.778;2023-07-08T12:20:45;6.77;;;6.07;;
920;SDS011;447;51.332;6.778;2023-07-08T12:23:17;6.93;;;6.23;;
920;SDS011;447;51.332;6.778;2023-07-08T12:25:47;7.87;;;6.33;;
920;SDS011;447;51.332;6.778;2023-07-08T12:28:14;9.23;;;5.87;;
920;SDS011;447;51.332;6.778;2023-07-08T12:30:43;6.80;;;6.03;;
920;SDS011;447;51.332;6.778;2023-07-08T12:33:17;7.60;;;6.90;;
920;SDS011;447;51.332;6.778;2023-07-08T12:36:05;6.83;;;5.80;;
920;SDS011;447;51.332;6.778;2023-07-08T12:38:34;8.10;;;6.20;;
920;SDS011;447;51.332;6.778;2023-07-08T12:41:08;7.50;;;6.20;;
920;SDS011;447;51.332;6.778;2023-07-08T12:43:38;7.17;;;6.47;;
920;SDS011;447;51.332;6.778;2023-07-08T12:46:09;6.80;;;6.20;;
920;SDS011;447;51.332;6.778;2023-07-08T12:48:41;7.97;;;7.00;;
920;SDS011;447;51.332;6.778;2023-07-08T12:51:10;7.50;;;6.80;;
920;SDS011;447;51.332;6.778;2023-07-08T12:53:46;7.23;;;6.37;;
920;SDS011;447;51.332;6.778;2023-07-08T12:56:21;7.10;;;6.50;;
920;SDS011;447;51.332;6.778;2023-07-08T12:58:50;8.23;;;6.30;;
920;SDS011;447;51.332;6.778;2023-07-08T13:01:21;8.43;;;6.60;;
920;SDS011;447;51.332;6.778;2023-07-08T13:03:56;7.80;;;7.07;;
920;SDS011;447;51.332;6.778;2023-07-08T13:06:33;9.73;;;6.43;;
920;SDS011;447;51.332;6.778;2023-07-08T13:09:05;7.03;;;6.30;;
920;SDS011;447;51.332;6.778;2023-07-08T13:11:33;53.20;;;8.53;;
920;SDS011;447;51.332;6.778;2023-07-08T13:14:03;23.30;;;7.57;;
920;SDS011;447;51.332;6.778;2023-07-08T13:16:36;7.30;;;5.90;;
920;SDS011;447;51.332;6.778;2023-07-08T13:19:04;8.90;;;5.63;;
920;SDS011;447;51.332;6.778;2023-07-08T13:21:31;8.40;;;4.90;;
920;SDS011;447;51.332;6.778;2023-07-08T13:24:06;6.90;;;5.63;;
920;SDS011;447;51.332;6.778;2023-07-08T13:26:36;6.40;;;5.40;;
920;SDS011;447;51.332;6.778;2023-07-08T13:29:11;6.37;;;5.77;;
920;SDS011;447;51.332;6.778;2023-07-08T13:31:43;6.43;;;5.87;;
920;SDS011;447;51.332;6.778;2023-07-08T13:34:17;5.87;;;5.27;;
920;SDS011;447;51.332;6.778;2023-07-08T13:36:49;8.37;;;5.63;;
920;SDS011;447;51.332;6.778;2023-07-08T13:39:24;7.80;;;6.10;;
920;SDS011;447;51.332;6.778;2023-07-08T13:41:56;7.37;;;5.10;;
920;SDS011;447;51.332;6.778;2023-07-08T13:44:24;6.47;;;5.20;;
920;SDS011;447;51.332;6.778;2023-07-08T13:52:13;5.67;;;5.17;;
920;SDS011;447;51.332;6.778;2023-07-08T13:54:47;5.30;;;4.80;;
920;SDS011;447;51.332;6.778;2023-07-08T13:57:21;6.20;;;5.70;;
920;SDS011;447;51.332;6.778;2023-07-08T13:59:52;6.60;;;5.10;;
920;SDS011;447;51.332;6.778;2023-07-08T14:04:46;6.83;;;5.77;;
920;SDS011;447;51.332;6.778;2023-07-08T14:07:17;5.90;;;5.40;;
920;SDS011;447;51.332;6.778;2023-07-08T14:09:49;6.47;;;5.87;;
920;SDS011;447;51.332;6.778;2023-07-08T14:12:15;7.23;;;5.70;;
920;SDS011;447;51.332;6.778;2023-07-08T14:14:41;5.93;;;5.43;;
920;SDS011;447;51.332;6.778;2023-07-08T14:17:08;6.87;;;5.83;;
920;SDS011;447;51.332;6.778;2023-07-08T14:19:39;6.43;;;5.83;;
920;SDS011;447;51.332;6.778;2023-07-08T14:24:39;6.30;;;5.70;;
920;SDS011;447;51.332;6.778;2023-07-08T14:27:09;7.10;;;6.20;;
920;SDS011;447;51.332;6.778;2023-07-08T14:29:38;6.47;;;5.87;;
920;SDS011;447;51.332;6.778;2023-07-08T14:32:13;7.27;;;5.63;;
920;SDS011;447;51.332;6.778;2023-07-08T14:34:52;6.33;;;5.67;;
920;SDS011;447;51.332;6.778;2023-07-08T14:37:20;7.10;;;6.40;;
920;SDS011;447;51.332;6.778;2023-07-08T14:39:47;7.07;;;6.37;;
920;SDS011;447;51.332;6.778;2023-07-08T14:42:16;6.07;;;5.47;;
920;SDS011;447;51.332;6.778;2023-07-08T14:44:48;7.50;;;5.67;;
920;SDS011;447;51.332;6.778;2023-07-08T14:47:16;7.87;;;6.80;;
920;SDS011;447;51.332;6.778;2023-07-08T14:49:43;7.00;;;6.37;;
920;SDS011;447;51.332;6.778;2023-07-08T14:52:10;6.23;;;5.63;;
920;SDS011;447;51.332;6.778;2023-07-08T14:54:36;6.27;;;5.40;;
920;SDS011;447;51.332;6.778;2023-07-08T14:57:04;11.70;;;6.50;;
920;SDS011;447;51.332;6.778;2023-07-08T14:59:31;6.57;;;5.80;;
920;SDS011;447;51.332;6.778;2023-07-08T15:01:59;7.60;;;6.20;;
920;SDS011;447;51.332;6.778;2023-07-08T15:04:27;9.27;;;6.13;;
920;SDS011;447;51.332;6.778;2023-07-08T15:06:53;5.77;;;5.27;;
920;SDS011;447;51.332;6.778;2023-07-08T15:09:22;6.00;;;5.40;;
920;SDS011;447;51.332;6.778;2023-07-08T15:11:48;7.93;;;6.00;;
920;SDS011;447;51.332;6.778;2023-07-08T15:14:21;7.23;;;5.40;;
920;SDS011;447;51.332;6.778;2023-07-08T15:16:50;6.00;;;5.43;;
920;SDS011;447;51.332;6.778;2023-07-08T15:19:17;6.60;;;5.30;;
920;SDS011;447;51.332;6.778;2023-07-08T15:21:44;7.37;;;5.63;;
920;SDS011;447;51.332;6.778;2023-07-08T15:24:10;13.40;;;6.57;;
920;SDS011;447;51.332;6.778;2023-07-08T15:26:48;11.60;;;6.10;;
920;SDS011;447;51.332;6.778;2023-07-08T15:29:16;7.77;;;5.90;;
920;SDS011;447;51.332;6.778;2023-07-08T15:31:47;7.93;;;6.27;;
920;SDS011;447;51.332;6.778;2023-07-08T15:34:14;26.33;;;10.10;;
920;SDS011;447;51.332;6.778;2023-07-08T15:36:44;12.80;;;6.00;;
920;SDS011;447;51.332;6.778;2023-07-08T15:39:10;12.50;;;6.90;;
920;SDS011;447;51.332;6.778;2023-07-08T15:41:38;36.90;;;13.60;;
920;SDS011;447;51.332;6.778;2023-07-08T15:44:06;9.20;;;7.20;;
920;SDS011;447;51.332;6.778;2023-07-08T15:46:37;6.97;;;6.20;;
920;SDS011;447;51.332;6.778;2023-07-08T15:49:17;6.50;;;5.90;;
920;SDS011;447;51.332;6.778;2023-07-08T15:51:44;9.23;;;5.77;;
920;SDS011;447;51.332;6.778;2023-07-08T15:54:11;13.47;;;6.70;;
920;SDS011;447;51.332;6.778;2023-07-08T15:56:37;18.77;;;6.97;;
920;SDS011;447;51.332;6.778;2023-07-08T15:59:05;15.73;;;6.87;;
920;SDS011;447;51.332;6.778;2023-07-08T16:01:37;9.90;;;6.20;;
920;SDS011;447;51.332;6.778;2023-07-08T16:04:05;13.40;;;7.27;;
920;SDS011;447;51.332;6.778;2023-07-08T16:06:54;11.57;;;5.97;;
920;SDS011;447;51.332;6.778;2023-07-08T16:09:20;7.90;;;6.83;;
920;SDS011;447;51.332;6.778;2023-07-08T16:11:46;8.93;;;5.43;;
920;SDS011;447;51.332;6.778;2023-07-08T16:14:13;9.97;;;6.17;;
920;SDS011;447;51.332;6.778;2023-07-08T16:16:41;11.43;;;6.63;;
920;SDS011;447;51.332;6.778;2023-07-08T16:19:11;8.67;;;6.67;;
920;SDS011;447;51.332;6.778;2023-07-08T16:21:39;14.57;;;6.90;;
920;SDS011;447;51.332;6.778;2023-07-08T16:24:05;6.73;;;5.50;;
920;SDS011;447;51.332;6.778;2023-07-08T16:26:31;7.60;;;6.37;;
920;SDS011;447;51.332;6.778;2023-07-08T16:28:57;6.63;;;5.57;;
920;SDS011;447;51.332;6.778;2023-07-08T16:31:24;7.43;;;6.30;;
920;SDS011;447;51.332;6.778;2023-07-08T16:33:52;6.20;;;5.60;;
920;SDS011;447;51.332;6.778;2023-07-08T16:36:19;8.30;;;5.60;;
920;SDS011;447;51.332;6.778;2023-07-08T16:38:47;10.10;;;5.43;;
920;SDS011;447;51.332;6.778;2023-07-08T16:41:14;6.80;;;5.73;;
920;SDS011;447;51.332;6.778;2023-07-08T16:43:41;6.50;;;5.40;;
920;SDS011;447;51.332;6.778;2023-07-08T16:46:09;9.10;;;6.50;;
920;SDS011;447;51.332;6.778;2023-07-08T16:48:36;6.30;;;5.70;;
920;SDS011;447;51.332;6.778;2023-07-08T16:51:04;6.97;;;5.63;;
920;SDS011;447;51.332;6.778;2023-07-08T16:53:36;6.10;;;5.50;;
920;SDS011;447;51.332;6.778;2023-07-08T16:56:01;11.13;;;6.00;;
920;SDS011;447;51.332;6.778;2023-07-08T16:58:28;6.87;;;5.73;;
920;SDS011;447;51.332;6.778;2023-07-08T17:00:54;6.83;;;5.40;;
920;SDS011;447;51.332;6.778;2023-07-08T17:03:20;8.30;;;5.23;;
920;SDS011;447;51.332;6.778;2023-07-08T17:05:47;6.63;;;5.93;;
920;SDS011;447;51.332;6.778;2023-07-08T17:08:13;6.53;;;5.80;;
920;SDS011;447;51.332;6.778;2023-07-08T17:10:41;7.07;;;6.37;;
920;SDS011;447;51.332;6.778;2023-07-08T17:13:12;6.50;;;5.17;;
920;SDS011;447;51.332;6.778;2023-07-08T17:15:38;5.80;;;5.27;;